"stadt Gera" — C4XY2 — position and weather

sailwx.info

Track history (hours):
 
Tides and Currents Weather Stations Pressure Air Temp Water Temp Dewpoint Dewpoint Depression Visibility Wind Speed Wind Dir Waves Ship Positions

"stadt Gera"

Last reported at 2014-Jul-30 11:33 UTC. Time now 2014-Aug-02 02:44 UTC.
Position N 25°39' W 079°35'.

Length 166 m; draft 8 m.

Type: Ship (hazmat cat A). MMSI: 210235000.

Date/timePositionNaut miles runAvg speedWind from/ knotsBaromVisibWave heightAir tempDewpointWater temp
2014-Jul-30 11:33N 25°39' W 079°35'1312.8
2014-Jul-30 10:34N 25°52' W 079°33'1312.8
2014-Jul-30 09:33N 26°05' W 079°30'1312.7
2014-Jul-30 08:33N 26°17' W 079°29'1312.8
2014-Jul-30 07:32N 26°30' W 079°29'1212.6
2014-Jul-30 06:33N 26°43' W 079°28'1512.4
2014-Jul-30 05:19N 26°58' W 079°29'401 8.4
2014-Jul-28 05:33N 33°32' W 078°05'1311.4
2014-Jul-28 04:24N 33°30' W 077°49'1011.0
2014-Jul-28 03:31N 33°28' W 077°38'1410.2
2014-Jul-28 02:08N 33°32' W 077°21'1011.0
2014-Jul-28 01:14N 33°37' W 077°11'811.1
2014-Jul-28 00:33N 33°41' W 077°04'1111.0
2014-Jul-27 23:33N 33°47' W 076°53'8 8.3
2014-Jul-27 22:33N 33°51' W 076°44'8 8.1
2014-Jul-27 21:33N 33°57' W 076°37'1211.5
2014-Jul-27 20:33N 34°04' W 076°26'1111.4
2014-Jul-27 19:33N 34°12' W 076°17'1211.7
2014-Jul-27 18:33N 34°21' W 076°08'1111.4
2014-Jul-27 17:33N 34°30' W 075°59'1111.3
2014-Jul-27 16:33N 34°39' W 075°50'2711.5
2014-Jul-27 14:10N 34°58' W 075°26'812.1
2014-Jul-27 13:32N 35°03' W 075°19'1010.6
2014-Jul-27 12:33N 35°12' W 075°13'1211.4
2014-Jul-27 11:31N 35°24' W 075°13'8512.2
2014-Jul-27 04:33N 36°45' W 075°42'1312.5
2014-Jul-27 03:33N 36°53' W 075°54'1312.9
2014-Jul-27 02:33N 36°59' W 076°09'1010.2
2014-Jul-27 01:33N 36°55' W 076°20'2 0.5
2014-Jul-26 21:31N 36°53' W 076°21'0 0.0
2014-Jul-26 17:30N 36°53' W 076°21'0 0.0
2014-Jul-26 16:33N 36°53' W 076°21'0 0.0
2014-Jul-26 12:19N 36°53' W 076°21'0 0.1
2014-Jul-26 09:19N 36°53' W 076°21'5 5.5
2014-Jul-26 08:27N 36°57' W 076°20'1010.6
2014-Jul-26 07:30N 36°59' W 076°08'1313.2
2014-Jul-26 06:33N 36°54' W 075°53'15013.5
2014-Jul-25 19:26N 34°25' W 076°11'27514.5
2014-Jul-25 00:25N 32°02' W 080°52'911.0
2014-Jul-24 23:33N 32°05' W 081°03'6 1.2
2014-Jul-24 18:28N 32°08' W 081°09'0 0.0
2014-Jul-24 17:26N 32°08' W 081°09'1 0.1
2014-Jul-24 09:29N 32°07' W 081°08'34714.4
2014-Jul-23 09:17N 26°31' W 079°27'1318.3
2014-Jul-23 08:33N 26°18' W 079°28'1818.4
2014-Jul-23 07:33N 25°60' W 079°31'1918.5
2014-Jul-23 06:33N 25°41' W 079°34'  
Track history (hours):
 
Tides and Currents Weather Stations Pressure Air Temp Water Temp Dewpoint Dewpoint Depression Visibility Wind Speed Wind Dir Waves Ship Positions

"stadt Gera"

Last reported at 2014-Jul-30 11:33 UTC. Time now 2014-Aug-02 02:44 UTC.
Position N 25°39' W 079°35'.

Length 166 m; draft 8 m.

Type: Ship (hazmat cat A). MMSI: 210235000.

Date/timePositionNaut miles runAvg speedWind from/ knotsBaromVisibWave heightAir tempDewpointWater temp
2014-Jul-30 11:33N 25°39' W 079°35'1312.8
2014-Jul-30 10:34N 25°52' W 079°33'1312.8
2014-Jul-30 09:33N 26°05' W 079°30'1312.7
2014-Jul-30 08:33N 26°17' W 079°29'1312.8
2014-Jul-30 07:32N 26°30' W 079°29'1212.6
2014-Jul-30 06:33N 26°43' W 079°28'1512.4
2014-Jul-30 05:19N 26°58' W 079°29'401 8.4
2014-Jul-28 05:33N 33°32' W 078°05'1311.4
2014-Jul-28 04:24N 33°30' W 077°49'1011.0
2014-Jul-28 03:31N 33°28' W 077°38'1410.2
2014-Jul-28 02:08N 33°32' W 077°21'1011.0
2014-Jul-28 01:14N 33°37' W 077°11'811.1
2014-Jul-28 00:33N 33°41' W 077°04'1111.0
2014-Jul-27 23:33N 33°47' W 076°53'8 8.3
2014-Jul-27 22:33N 33°51' W 076°44'8 8.1
2014-Jul-27 21:33N 33°57' W 076°37'1211.5
2014-Jul-27 20:33N 34°04' W 076°26'1111.4
2014-Jul-27 19:33N 34°12' W 076°17'1211.7
2014-Jul-27 18:33N 34°21' W 076°08'1111.4
2014-Jul-27 17:33N 34°30' W 075°59'1111.3
2014-Jul-27 16:33N 34°39' W 075°50'2711.5
2014-Jul-27 14:10N 34°58' W 075°26'812.1
2014-Jul-27 13:32N 35°03' W 075°19'1010.6
2014-Jul-27 12:33N 35°12' W 075°13'1211.4
2014-Jul-27 11:31N 35°24' W 075°13'8512.2
2014-Jul-27 04:33N 36°45' W 075°42'1312.5
2014-Jul-27 03:33N 36°53' W 075°54'1312.9
2014-Jul-27 02:33N 36°59' W 076°09'1010.2
2014-Jul-27 01:33N 36°55' W 076°20'2 0.5
2014-Jul-26 21:31N 36°53' W 076°21'0 0.0
2014-Jul-26 17:30N 36°53' W 076°21'0 0.0
2014-Jul-26 16:33N 36°53' W 076°21'0 0.0
2014-Jul-26 12:19N 36°53' W 076°21'0 0.1
2014-Jul-26 09:19N 36°53' W 076°21'5 5.5
2014-Jul-26 08:27N 36°57' W 076°20'1010.6
2014-Jul-26 07:30N 36°59' W 076°08'1313.2
2014-Jul-26 06:33N 36°54' W 075°53'15013.5
2014-Jul-25 19:26N 34°25' W 076°11'27514.5
2014-Jul-25 00:25N 32°02' W 080°52'911.0
2014-Jul-24 23:33N 32°05' W 081°03'6 1.2
2014-Jul-24 18:28N 32°08' W 081°09'0 0.0
2014-Jul-24 17:26N 32°08' W 081°09'1 0.1
2014-Jul-24 09:29N 32°07' W 081°08'34714.4
2014-Jul-23 09:17N 26°31' W 079°27'1318.3
2014-Jul-23 08:33N 26°18' W 079°28'1818.4
2014-Jul-23 07:33N 25°60' W 079°31'1918.5
2014-Jul-23 06:33N 25°41' W 079°34'  

Dump ship's entire track history